Time;durP1;ratioP1;P1;durP2;ratioP2;P2;SDS_P1;SDS_P2;PMS_P1;PMS_P2;Temp;Humidity;BMP_temperature;BMP_pressure;BME280_temperature;BME280_humidity;BME280_pressure;Samples;Min_cycle;Max_cycle;Signal;HPM_P1;HPM_P2
2022/01/24 00:02:12;0.00;0.00;0.62;0.00;0.00;0.62;1.50;0.90;;;22.80;30.20;;;;;;2225431;62;20547;-60
2022/01/24 00:04:57;0.00;0.00;0.62;0.00;0.00;0.62;2.77;1.07;;;22.80;30.20;;;;;;2225166;62;20384;-60
2022/01/24 00:07:41;0.00;0.00;0.62;0.00;0.00;0.62;1.50;0.90;;;22.80;30.20;;;;;;2225952;62;20423;-60
2022/01/24 00:10:27;0.00;0.00;0.62;0.00;0.00;0.62;2.30;0.90;;;22.80;30.20;;;;;;2225345;62;20435;-61
2022/01/24 00:28:50;0.00;0.00;0.62;0.00;0.00;0.62;2.00;1.23;;;22.80;30.20;;;;;;2225708;62;20733;-62
2022/01/24 00:31:36;0.00;0.00;0.62;0.00;0.00;0.62;1.40;1.00;;;22.80;30.20;;;;;;2226310;62;20377;-61
2022/01/24 00:34:23;0.00;0.00;0.62;0.00;0.00;0.62;1.80;1.20;;;22.80;30.10;;;;;;2225748;62;20454;-61
2022/01/24 00:37:08;0.00;0.00;0.62;0.00;0.00;0.62;1.77;1.30;;;22.80;30.00;;;;;;2226725;62;20374;-59
2022/01/24 00:39:52;0.00;0.00;0.62;0.00;0.00;0.62;1.80;1.60;;;22.80;30.00;;;;;;2225507;62;20431;-61
2022/01/24 00:42:51;0.00;0.00;0.62;0.00;0.00;0.62;1.90;1.30;;;22.80;29.90;;;;;;2226187;62;20386;-61
2022/01/24 00:46:19;0.00;0.00;0.62;0.00;0.00;0.62;1.97;1.77;;;22.80;29.90;;;;;;2226886;62;20383;-61
2022/01/24 00:54:47;0.00;0.00;0.62;0.00;0.00;0.62;2.43;1.90;;;22.80;29.70;;;;;;2228045;62;20437;-61
2022/01/24 00:57:32;0.00;0.00;0.62;0.00;0.00;0.62;5.00;2.53;;;22.70;29.50;;;;;;2229993;62;20441;-61
2022/01/24 01:00:17;0.00;0.00;0.62;0.00;0.00;0.62;3.13;2.60;;;22.70;29.50;;;;;;2230489;62;20421;-59
2022/01/24 01:03:02;0.00;0.00;0.62;0.00;0.00;0.62;2.53;2.03;;;22.70;29.40;;;;;;2229276;62;20769;-59
2022/01/24 01:21:15;0.00;0.00;0.62;0.00;0.00;0.62;2.37;2.17;;;22.60;29.30;;;;;;2237314;62;20419;-61
2022/01/24 01:24:00;0.00;0.00;0.62;0.00;0.00;0.62;3.60;2.90;;;22.60;29.30;;;;;;2236853;62;20697;-60
2022/01/24 01:27:02;0.00;0.00;0.62;0.00;0.00;0.62;1.97;1.77;;;22.50;29.20;;;;;;2229956;62;20398;-60
2022/01/24 01:30:08;0.00;0.00;0.62;0.00;0.00;0.62;3.63;2.60;;;22.50;29.20;;;;;;2230519;62;20428;-60
2022/01/24 01:33:05;0.00;0.00;0.62;0.00;0.00;0.62;2.90;2.57;;;22.50;29.20;;;;;;2229110;62;20386;-60
2022/01/24 01:56:46;0.00;0.00;0.62;0.00;0.00;0.62;2.67;2.30;;;22.30;29.00;;;;;;2612874;46;20729;-59
2022/01/24 01:59:30;0.00;0.00;0.62;0.00;0.00;0.62;2.50;2.07;;;22.30;29.10;;;;;;2226417;62;20393;-61
2022/01/24 02:02:15;0.00;0.00;0.62;0.00;0.00;0.62;2.53;2.33;;;22.30;29.00;;;;;;2224968;62;20406;-61
2022/01/24 02:05:00;0.00;0.00;0.62;0.00;0.00;0.62;2.67;2.43;;;22.30;29.00;;;;;;2226136;62;20714;-61
2022/01/24 02:07:47;0.00;0.00;0.62;0.00;0.00;0.62;3.20;2.90;;;22.30;29.00;;;;;;2226132;62;20411;-61
2022/01/24 02:10:37;0.00;0.00;0.62;0.00;0.00;0.62;2.60;2.23;;;22.30;29.00;;;;;;2225346;62;20366;-61
2022/01/24 02:13:24;0.00;0.00;0.62;0.00;0.00;0.62;3.13;2.70;;;22.30;29.00;;;;;;2226048;62;20386;-61
2022/01/24 02:19:14;0.00;0.00;0.62;0.00;0.00;0.62;2.60;2.40;;;22.20;29.00;;;;;;2226161;62;20416;-61
2022/01/24 02:24:54;0.00;0.00;0.62;0.00;0.00;0.62;3.20;2.90;;;22.20;29.00;;;;;;2225560;62;20445;-59
2022/01/24 02:27:46;0.00;0.00;0.62;0.00;0.00;0.62;3.20;2.90;;;22.20;29.10;;;;;;2226497;62;20406;-60
2022/01/24 02:33:35;0.00;0.00;0.62;0.00;0.00;0.62;3.40;2.93;;;22.10;29.00;;;;;;2225662;62;20554;-60
2022/01/24 02:36:21;0.00;0.00;0.62;0.00;0.00;0.62;3.33;2.60;;;22.10;29.00;;;;;;2226380;62;20628;-59
2022/01/24 02:39:38;0.00;0.00;0.62;0.00;0.00;0.62;3.73;3.43;;;22.10;29.00;;;;;;2225157;62;20587;-61
2022/01/24 02:48:26;0.00;0.00;0.62;0.00;0.00;0.62;3.40;3.00;;;22.10;29.00;;;;;;2225899;62;20370;-61
2022/01/24 02:53:55;0.00;0.00;0.62;0.00;0.00;0.62;3.00;2.70;;;22.00;29.00;;;;;;2226255;62;20401;-60
2022/01/24 02:56:41;0.00;0.00;0.62;0.00;0.00;0.62;3.80;3.40;;;22.00;28.90;;;;;;2671357;46;20446;-61
2022/01/24 02:59:26;0.00;0.00;0.62;0.00;0.00;0.62;3.57;3.10;;;22.00;29.00;;;;;;2225886;62;20394;-61
2022/01/24 03:02:10;0.00;0.00;0.62;0.00;0.00;0.62;3.40;3.10;;;22.00;29.00;;;;;;2225163;62;20429;-61
2022/01/24 03:04:57;0.00;0.00;0.62;0.00;0.00;0.62;3.47;3.17;;;22.00;29.00;;;;;;2226173;62;20359;-61
2022/01/24 03:07:41;0.00;0.00;0.62;0.00;0.00;0.62;3.40;3.00;;;22.00;28.90;;;;;;2225629;62;20370;-61
2022/01/24 03:10:30;0.00;0.00;0.62;0.00;0.00;0.62;5.03;3.53;;;21.90;28.90;;;;;;2225532;62;20407;-61
2022/01/24 03:16:09;0.00;0.00;0.62;0.00;0.00;0.62;3.87;3.00;;;21.90;28.90;;;;;;2225137;62;20381;-61
2022/01/24 03:18:53;0.00;0.00;0.62;0.00;0.00;0.62;4.00;3.20;;;21.90;28.90;;;;;;2225788;62;20366;-61
2022/01/24 03:21:38;0.00;0.00;0.62;0.00;0.00;0.62;3.67;3.37;;;21.90;28.90;;;;;;2225913;62;20374;-60
2022/01/24 03:24:22;0.00;0.00;0.62;0.00;0.00;0.62;3.03;2.73;;;21.90;28.90;;;;;;2225240;62;20407;-60
2022/01/24 03:27:07;0.00;0.00;0.62;0.00;0.00;0.62;4.83;3.57;;;21.90;28.90;;;;;;2226239;62;20374;-61
2022/01/24 03:29:53;0.00;0.00;0.62;0.00;0.00;0.62;3.50;3.20;;;21.90;28.90;;;;;;2225546;62;20361;-60
2022/01/24 03:32:37;0.00;0.00;0.62;0.00;0.00;0.62;3.30;3.00;;;21.80;28.80;;;;;;2225476;62;20398;-61
2022/01/24 03:35:22;0.00;0.00;0.62;0.00;0.00;0.62;3.20;2.87;;;21.80;28.80;;;;;;2226166;62;20370;-61
2022/01/24 03:38:07;0.00;0.00;0.62;0.00;0.00;0.62;3.57;2.90;;;21.80;28.90;;;;;;2224942;62;20405;-60
2022/01/24 03:40:51;0.00;0.00;0.62;0.00;0.00;0.62;3.20;2.90;;;21.80;28.90;;;;;;2225458;62;20442;-60
2022/01/24 03:43:36;0.00;0.00;0.62;0.00;0.00;0.62;4.00;3.60;;;21.80;28.80;;;;;;2226269;62;20443;-60
2022/01/24 03:46:27;0.00;0.00;0.62;0.00;0.00;0.62;3.67;3.10;;;21.80;28.90;;;;;;2225440;62;20625;-60
2022/01/24 03:49:45;0.00;0.00;0.62;0.00;0.00;0.62;2.60;2.40;;;21.80;28.90;;;;;;2226106;62;20374;-60
2022/01/24 03:52:19;0.00;0.00;0.62;0.00;0.00;0.62;3.20;2.90;;;21.80;28.90;;;;;;2225272;62;20390;-61
2022/01/24 03:55:06;0.00;0.00;0.62;0.00;0.00;0.62;3.47;3.17;;;21.70;28.80;;;;;;2228299;62;20422;-61
2022/01/24 03:57:51;0.00;0.00;0.62;0.00;0.00;0.62;3.03;2.73;;;21.70;28.90;;;;;;2230037;62;20414;-61
2022/01/24 04:00:35;0.00;0.00;0.62;0.00;0.00;0.62;4.30;3.00;;;21.70;28.90;;;;;;2228728;62;20389;-60
2022/01/24 04:03:21;0.00;0.00;0.62;0.00;0.00;0.62;3.53;3.23;;;21.70;28.90;;;;;;2229543;62;20466;-61
2022/01/24 04:06:06;0.00;0.00;0.62;0.00;0.00;0.62;3.03;2.80;;;21.70;28.90;;;;;;2229752;62;20727;-60
2022/01/24 04:08:51;0.00;0.00;0.62;0.00;0.00;0.62;3.23;2.93;;;21.70;28.90;;;;;;2229011;62;20625;-60
2022/01/24 04:11:38;0.00;0.00;0.62;0.00;0.00;0.62;3.03;2.73;;;21.70;28.90;;;;;;2229870;62;20727;-61
2022/01/24 04:23:02;0.00;0.00;0.62;0.00;0.00;0.62;3.50;3.20;;;21.60;28.90;;;;;;2228656;62;20389;-60
2022/01/24 04:25:46;0.00;0.00;0.62;0.00;0.00;0.62;3.60;3.30;;;21.60;28.90;;;;;;2229731;62;20373;-61
2022/01/24 04:28:31;0.00;0.00;0.62;0.00;0.00;0.62;3.20;2.90;;;21.60;28.90;;;;;;2229426;62;20369;-61
2022/01/24 04:31:16;0.00;0.00;0.62;0.00;0.00;0.62;5.60;3.10;;;21.60;28.90;;;;;;2228809;62;20384;-61
2022/01/24 04:34:01;0.00;0.00;0.62;0.00;0.00;0.62;3.63;3.23;;;21.60;28.90;;;;;;2230000;62;20369;-60
2022/01/24 04:36:47;0.00;0.00;0.62;0.00;0.00;0.62;4.07;3.47;;;21.60;28.90;;;;;;2229266;62;20373;-60
2022/01/24 04:39:32;0.00;0.00;0.62;0.00;0.00;0.62;3.10;2.70;;;21.60;28.90;;;;;;2229382;62;20494;-61
2022/01/24 04:42:25;0.00;0.00;0.62;0.00;0.00;0.62;3.47;3.17;;;21.50;28.80;;;;;;2229749;62;20384;-61
2022/01/24 04:51:12;0.00;0.00;0.62;0.00;0.00;0.62;3.30;3.00;;;21.50;29.40;;;;;;2228947;62;20613;-60
2022/01/24 04:56:52;0.00;0.00;0.62;0.00;0.00;0.62;3.67;3.37;;;21.50;28.80;;;;;;2226035;62;20593;-61
2022/01/24 04:59:39;0.00;0.00;0.62;0.00;0.00;0.62;5.23;3.30;;;21.50;28.80;;;;;;2224560;62;20442;-60
2022/01/24 05:02:25;0.00;0.00;0.62;0.00;0.00;0.62;3.70;3.40;;;21.50;28.80;;;;;;2225423;62;20409;-61
2022/01/24 05:05:14;0.00;0.00;0.62;0.00;0.00;0.62;3.60;3.03;;;21.40;28.80;;;;;;2226056;62;20401;-61
2022/01/24 05:08:03;0.00;0.00;0.62;0.00;0.00;0.62;3.27;2.97;;;21.40;28.80;;;;;;2224927;62;20366;-60
2022/01/24 05:11:00;0.00;0.00;0.62;0.00;0.00;0.62;4.20;3.80;;;21.40;28.80;;;;;;2225819;62;20373;-61
2022/01/24 05:26:04;0.00;0.00;0.62;0.00;0.00;0.62;3.80;3.07;;;21.30;28.80;;;;;;2226684;62;20366;-59
2022/01/24 05:28:49;0.00;0.00;0.62;0.00;0.00;0.62;3.47;2.93;;;21.30;28.90;;;;;;2225399;62;20684;-60
2022/01/24 05:31:34;0.00;0.00;0.62;0.00;0.00;0.62;3.70;3.23;;;21.30;28.90;;;;;;2226047;62;20362;-59
2022/01/24 05:34:18;0.00;0.00;0.62;0.00;0.00;0.62;3.40;3.07;;;21.30;28.90;;;;;;2226571;62;20446;-59
2022/01/24 05:37:03;0.00;0.00;0.62;0.00;0.00;0.62;3.73;3.33;;;21.40;28.90;;;;;;2225543;62;20398;-60
2022/01/24 05:39:48;0.00;0.00;0.62;0.00;0.00;0.62;4.03;2.83;;;21.30;28.90;;;;;;2226183;62;20515;-59
2022/01/24 05:42:35;0.00;0.00;0.62;0.00;0.00;0.62;3.43;3.03;;;21.30;28.80;;;;;;2225724;62;20390;-60
2022/01/24 05:45:20;0.00;0.00;0.62;0.00;0.00;0.62;4.60;3.53;;;21.30;28.80;;;;;;2225660;62;20580;-60
2022/01/24 05:48:05;0.00;0.00;0.62;0.00;0.00;0.62;5.57;2.80;;;21.30;28.80;;;;;;2226128;62;20442;-59
2022/01/24 05:50:50;0.00;0.00;0.62;0.00;0.00;0.62;4.50;3.07;;;21.30;28.80;;;;;;2225452;62;20411;-58
2022/01/24 05:53:34;0.00;0.00;0.62;0.00;0.00;0.62;3.13;2.60;;;21.30;28.80;;;;;;2227159;62;20657;-59
2022/01/24 05:56:19;0.00;0.00;0.62;0.00;0.00;0.62;3.30;2.83;;;21.30;28.70;;;;;;2261728;59;20414;-60
2022/01/24 05:59:05;0.00;0.00;0.62;0.00;0.00;0.62;3.30;2.80;;;21.30;28.70;;;;;;2229214;62;20365;-60
2022/01/24 06:01:49;0.00;0.00;0.62;0.00;0.00;0.62;3.80;3.10;;;21.30;28.70;;;;;;2229742;62;20389;-57
2022/01/24 06:04:34;0.00;0.00;0.62;0.00;0.00;0.62;3.57;2.77;;;21.30;28.70;;;;;;2230007;62;20462;-61
2022/01/24 06:07:19;0.00;0.00;0.62;0.00;0.00;0.62;3.10;2.80;;;21.30;28.70;;;;;;2229399;62;20372;-60
2022/01/24 06:10:05;0.00;0.00;0.62;0.00;0.00;0.62;3.13;2.70;;;21.30;28.80;;;;;;2230247;62;20425;-60
2022/01/24 06:12:50;0.00;0.00;0.62;0.00;0.00;0.62;5.93;3.20;;;21.20;28.80;;;;;;2226491;62;20413;-61
2022/01/24 06:15:36;0.00;0.00;0.62;0.00;0.00;0.62;3.20;2.33;;;21.20;28.80;;;;;;2229827;62;20369;-61
2022/01/24 06:18:24;0.00;0.00;0.62;0.00;0.00;0.62;3.67;2.40;;;21.20;28.90;;;;;;2230177;62;20369;-60
2022/01/24 06:21:08;0.00;0.00;0.62;0.00;0.00;0.62;3.03;2.43;;;21.20;28.90;;;;;;2229004;62;20392;-61
2022/01/24 06:23:53;0.00;0.00;0.62;0.00;0.00;0.62;2.30;2.10;;;21.20;28.90;;;;;;2229985;62;20634;-61
2022/01/24 06:26:37;0.00;0.00;0.62;0.00;0.00;0.62;2.10;1.90;;;21.20;28.90;;;;;;2230094;62;20373;-61
2022/01/24 06:29:22;0.00;0.00;0.62;0.00;0.00;0.62;4.17;1.93;;;21.30;28.90;;;;;;2229325;62;20369;-61
2022/01/24 06:32:08;0.00;0.00;0.62;0.00;0.00;0.62;2.03;1.57;;;21.20;28.90;;;;;;2230032;62;20432;-61
2022/01/24 06:34:53;0.00;0.00;0.62;0.00;0.00;0.62;2.27;1.73;;;21.20;28.90;;;;;;2229665;62;20503;-59
2022/01/24 06:37:38;0.00;0.00;0.62;0.00;0.00;0.62;1.97;1.43;;;21.20;28.90;;;;;;2229606;62;20725;-60
2022/01/24 06:40:22;0.00;0.00;0.62;0.00;0.00;0.62;2.10;1.70;;;21.30;29.00;;;;;;2230199;62;20428;-62
2022/01/24 06:43:07;0.00;0.00;0.62;0.00;0.00;0.62;2.07;1.80;;;21.20;28.90;;;;;;2229039;62;20434;-63
2022/01/24 06:45:52;0.00;0.00;0.62;0.00;0.00;0.62;1.70;1.57;;;21.30;29.00;;;;;;2229749;62;20380;-61
2022/01/24 06:48:38;0.00;0.00;0.62;0.00;0.00;0.62;1.90;1.27;;;21.30;29.00;;;;;;2230402;62;20369;-60
2022/01/24 06:51:23;0.00;0.00;0.62;0.00;0.00;0.62;2.40;1.57;;;21.30;29.00;;;;;;2229391;62;20361;-60
2022/01/24 06:54:08;0.00;0.00;0.62;0.00;0.00;0.62;1.70;1.20;;;21.30;29.00;;;;;;2228174;62;20413;-61
2022/01/24 06:56:52;0.00;0.00;0.62;0.00;0.00;0.62;2.17;1.50;;;21.30;29.00;;;;;;2229631;62;20426;-61
2022/01/24 06:59:37;0.00;0.00;0.62;0.00;0.00;0.62;2.13;1.33;;;21.30;29.00;;;;;;2229051;62;20781;-60
2022/01/24 07:02:22;0.00;0.00;0.62;0.00;0.00;0.62;1.60;1.20;;;21.30;29.50;;;;;;2230085;62;20392;-61
2022/01/24 07:05:08;0.00;0.00;0.62;0.00;0.00;0.62;1.60;1.10;;;21.30;29.00;;;;;;2229004;62;20388;-60
2022/01/24 07:07:56;0.00;0.00;0.62;0.00;0.00;0.62;2.07;1.30;;;21.30;29.00;;;;;;2229629;62;20724;-59
2022/01/24 07:10:41;0.00;0.00;0.62;0.00;0.00;0.62;1.87;1.53;;;21.30;29.00;;;;;;2230062;62;20414;-61
2022/01/24 07:13:25;0.00;0.00;0.62;0.00;0.00;0.62;1.83;1.10;;;21.30;29.00;;;;;;2229179;62;20393;-61
2022/01/24 07:16:12;0.00;0.00;0.62;0.00;0.00;0.62;1.73;1.37;;;21.30;29.00;;;;;;2229823;62;20414;-61
2022/01/24 07:19:02;0.00;0.00;0.62;0.00;0.00;0.62;1.40;1.00;;;21.30;29.00;;;;;;2229413;62;20370;-59
2022/01/24 07:21:48;0.00;0.00;0.62;0.00;0.00;0.62;1.70;1.13;;;21.30;29.00;;;;;;2228878;62;20437;-60
2022/01/24 07:24:34;0.00;0.00;0.62;0.00;0.00;0.62;1.67;1.10;;;21.30;29.00;;;;;;2230237;62;20601;-60
2022/01/24 07:27:18;0.00;0.00;0.62;0.00;0.00;0.62;1.90;1.40;;;21.30;29.00;;;;;;2228708;62;20373;-61
2022/01/24 07:30:04;0.00;0.00;0.62;0.00;0.00;0.62;2.57;1.63;;;21.30;29.00;;;;;;2229682;62;20400;-60
2022/01/24 07:32:50;0.00;0.00;0.62;0.00;0.00;0.62;2.13;1.60;;;21.40;29.10;;;;;;2229983;62;20389;-60
2022/01/24 07:35:34;0.00;0.00;0.62;0.00;0.00;0.62;2.23;1.10;;;21.30;29.00;;;;;;2228824;62;20448;-61
2022/01/24 07:38:20;0.00;0.00;0.62;0.00;0.00;0.62;1.47;1.17;;;21.40;29.10;;;;;;2230171;62;20625;-60
2022/01/24 07:41:06;0.00;0.00;0.62;0.00;0.00;0.62;1.70;1.10;;;21.30;29.00;;;;;;2229175;62;20393;-64
2022/01/24 07:43:51;0.00;0.00;0.62;0.00;0.00;0.62;1.33;0.97;;;21.40;29.10;;;;;;2229027;62;20372;-60
2022/01/24 07:46:36;0.00;0.00;0.62;0.00;0.00;0.62;2.07;1.50;;;21.40;29.00;;;;;;2230189;62;20752;-61
2022/01/24 07:49:21;0.00;0.00;0.62;0.00;0.00;0.62;1.40;1.10;;;21.30;29.00;;;;;;2229075;62;20461;-60
2022/01/24 07:52:06;0.00;0.00;0.62;0.00;0.00;0.62;3.63;1.20;;;21.40;29.00;;;;;;2229482;62;20436;-60
2022/01/24 07:54:52;0.00;0.00;0.62;0.00;0.00;0.62;2.17;1.60;;;21.40;29.00;;;;;;2227540;62;20389;-61
2022/01/24 07:57:37;0.00;0.00;0.62;0.00;0.00;0.62;1.50;1.20;;;21.40;29.00;;;;;;2225045;62;20369;-61
2022/01/24 08:00:21;0.00;0.00;0.62;0.00;0.00;0.62;1.47;1.00;;;21.40;29.00;;;;;;2225815;62;20394;-60
2022/01/24 08:03:07;0.00;0.00;0.62;0.00;0.00;0.62;1.60;0.90;;;21.40;29.00;;;;;;2225625;62;20409;-60
2022/01/24 08:05:51;0.00;0.00;0.62;0.00;0.00;0.62;1.50;1.00;;;21.40;29.00;;;;;;2225169;62;20373;-61
2022/01/24 08:08:36;0.00;0.00;0.62;0.00;0.00;0.62;1.40;1.00;;;21.40;29.00;;;;;;2226194;62;20709;-61
2022/01/24 08:11:22;0.00;0.00;0.62;0.00;0.00;0.62;2.50;1.53;;;21.40;29.00;;;;;;2225169;62;20420;-61
2022/01/24 08:14:08;0.00;0.00;0.62;0.00;0.00;0.62;1.80;1.17;;;21.40;29.00;;;;;;2225782;62;20826;-60
2022/01/24 08:16:53;0.00;0.00;0.62;0.00;0.00;0.62;1.60;1.00;;;21.40;29.00;;;;;;2226138;62;20397;-61
2022/01/24 08:19:37;0.00;0.00;0.62;0.00;0.00;0.62;1.80;1.27;;;21.40;29.00;;;;;;2224762;62;20410;-61
2022/01/24 08:22:22;0.00;0.00;0.62;0.00;0.00;0.62;1.50;1.00;;;21.40;29.00;;;;;;2225719;62;20609;-61
2022/01/24 08:25:08;0.00;0.00;0.62;0.00;0.00;0.62;1.60;1.20;;;21.40;29.00;;;;;;2225755;62;20366;-60
2022/01/24 08:27:55;0.00;0.00;0.62;0.00;0.00;0.62;1.63;1.40;;;21.50;29.00;;;;;;2225134;62;20394;-60
2022/01/24 08:30:39;0.00;0.00;0.62;0.00;0.00;0.62;1.50;1.00;;;21.50;29.00;;;;;;2225965;62;20405;-61
2022/01/24 08:33:24;0.00;0.00;0.62;0.00;0.00;0.62;1.40;0.90;;;21.50;29.10;;;;;;2224821;62;20397;-61
2022/01/24 08:36:08;0.00;0.00;0.62;0.00;0.00;0.62;1.40;1.00;;;21.50;29.10;;;;;;2225672;62;20419;-59
2022/01/24 08:38:53;0.00;0.00;0.62;0.00;0.00;0.62;1.97;1.00;;;21.50;29.00;;;;;;2226043;62;20362;-60
2022/01/24 08:42:01;0.00;0.00;0.62;0.00;0.00;0.62;1.97;1.40;;;21.50;29.00;;;;;;2224538;62;20469;-60
2022/01/24 08:47:44;0.00;0.00;0.62;0.00;0.00;0.62;1.50;1.03;;;21.50;29.00;;;;;;2225213;62;20786;-60
2022/01/24 08:50:29;0.00;0.00;0.62;0.00;0.00;0.62;1.67;1.13;;;21.50;29.00;;;;;;2225139;62;20741;-60
2022/01/24 08:53:14;0.00;0.00;0.62;0.00;0.00;0.62;1.60;1.10;;;21.50;29.00;;;;;;2227212;62;20434;-59
2022/01/24 08:56:00;0.00;0.00;0.62;0.00;0.00;0.62;1.40;0.90;;;21.50;29.00;;;;;;2228802;62;20430;-60
2022/01/24 08:58:45;0.00;0.00;0.62;0.00;0.00;0.62;1.67;1.10;;;21.50;29.00;;;;;;2230765;62;20361;-60
2022/01/24 09:01:31;0.00;0.00;0.62;0.00;0.00;0.62;1.40;0.80;;;21.50;29.00;;;;;;2230457;62;20524;-59
2022/01/24 09:04:15;0.00;0.00;0.62;0.00;0.00;0.62;1.40;1.00;;;21.50;29.00;;;;;;2229736;62;20372;-61
2022/01/24 09:07:05;0.00;0.00;0.62;0.00;0.00;0.62;1.40;1.00;;;21.50;29.00;;;;;;2230269;62;20722;-59
2022/01/24 09:09:49;0.00;0.00;0.62;0.00;0.00;0.62;1.60;1.00;;;21.50;29.00;;;;;;2229882;62;20365;-60
2022/01/24 09:12:34;0.00;0.00;0.62;0.00;0.00;0.62;1.40;0.90;;;21.50;29.00;;;;;;2229460;62;20406;-61
2022/01/24 09:15:19;0.00;0.00;0.62;0.00;0.00;0.62;1.40;0.80;;;21.60;29.00;;;;;;2230497;62;20373;-61
2022/01/24 09:18:05;0.00;0.00;0.62;0.00;0.00;0.62;1.60;0.90;;;21.50;29.00;;;;;;2229619;62;20373;-60
2022/01/24 09:20:50;0.00;0.00;0.62;0.00;0.00;0.62;1.63;1.10;;;21.60;29.00;;;;;;2229868;62;20389;-60
2022/01/24 09:23:34;0.00;0.00;0.62;0.00;0.00;0.62;1.30;1.00;;;21.60;29.00;;;;;;2230414;62;20381;-60
2022/01/24 09:26:19;0.00;0.00;0.62;0.00;0.00;0.62;1.50;0.90;;;21.60;29.00;;;;;;2228908;62;20369;-58
2022/01/24 09:29:04;0.00;0.00;0.62;0.00;0.00;0.62;1.30;0.90;;;21.60;29.00;;;;;;2230070;62;20446;-59
2022/01/24 09:31:49;0.00;0.00;0.62;0.00;0.00;0.62;1.70;1.00;;;21.60;29.00;;;;;;2230001;62;20425;-60
2022/01/24 09:34:35;0.00;0.00;0.62;0.00;0.00;0.62;1.57;1.00;;;21.60;29.00;;;;;;2229450;62;20477;-60
2022/01/24 09:37:19;0.00;0.00;0.62;0.00;0.00;0.62;1.70;1.00;;;21.60;29.00;;;;;;2230500;62;20757;-61
2022/01/24 09:40:06;0.00;0.00;0.62;0.00;0.00;0.62;1.73;1.20;;;21.60;29.00;;;;;;2229667;62;20393;-58
2022/01/24 09:42:52;0.00;0.00;0.62;0.00;0.00;0.62;1.30;0.80;;;21.60;29.00;;;;;;2229934;62;20760;-61
2022/01/24 09:45:37;0.00;0.00;0.62;0.00;0.00;0.62;1.80;1.10;;;21.60;29.00;;;;;;2230478;62;20414;-59
2022/01/24 09:48:22;0.00;0.00;0.62;0.00;0.00;0.62;1.60;1.13;;;21.60;29.00;;;;;;2229196;62;20424;-61
2022/01/24 09:51:09;0.00;0.00;0.62;0.00;0.00;0.62;1.30;0.80;;;21.60;29.00;;;;;;2229461;62;20402;-60
2022/01/24 09:53:55;0.00;0.00;0.62;0.00;0.00;0.62;1.40;0.93;;;21.60;29.00;;;;;;2228761;62;20405;-61
2022/01/24 09:56:40;0.00;0.00;0.62;0.00;0.00;0.62;1.90;1.20;;;21.60;29.00;;;;;;2453849;54;20405;-60
2022/01/24 09:59:24;0.00;0.00;0.62;0.00;0.00;0.62;1.40;0.90;;;21.60;29.00;;;;;;2226396;62;20431;-60
2022/01/24 10:02:09;0.00;0.00;0.62;0.00;0.00;0.62;1.63;1.17;;;21.60;29.00;;;;;;2225451;62;20674;-61
2022/01/24 10:05:11;0.00;0.00;0.62;0.00;0.00;0.62;1.53;0.90;;;21.60;29.00;;;;;;2225771;62;20377;-61
2022/01/24 10:08:00;0.00;0.00;0.62;0.00;0.00;0.62;1.30;1.00;;;21.60;29.00;;;;;;2226580;62;20365;-60
2022/01/24 10:10:51;0.00;0.00;0.62;0.00;0.00;0.62;2.00;1.10;;;21.60;29.00;;;;;;2225157;62;20403;-60
2022/01/24 10:16:45;0.00;0.00;0.62;0.00;0.00;0.62;1.27;0.80;;;21.60;28.90;;;;;;2225876;62;20579;-60
2022/01/24 10:19:29;0.00;0.00;0.62;0.00;0.00;0.62;1.50;0.90;;;21.70;29.50;;;;;;2225548;62;20649;-59
2022/01/24 10:22:14;0.00;0.00;0.62;0.00;0.00;0.62;1.57;1.30;;;21.60;28.90;;;;;;2226488;62;20394;-61
2022/01/24 10:25:00;0.00;0.00;0.62;0.00;0.00;0.62;1.60;1.10;;;21.70;29.00;;;;;;2225206;62;20388;-60
2022/01/24 10:27:45;0.00;0.00;0.62;0.00;0.00;0.62;1.30;0.80;;;21.70;29.00;;;;;;2225932;62;20480;-61
2022/01/24 10:30:31;0.00;0.00;0.62;0.00;0.00;0.62;1.30;0.80;;;21.70;29.00;;;;;;2226376;62;20378;-61
2022/01/24 10:33:15;0.00;0.00;0.62;0.00;0.00;0.62;1.67;0.87;;;21.70;29.00;;;;;;2225424;62;20394;-61
2022/01/24 10:36:00;0.00;0.00;0.62;0.00;0.00;0.62;1.40;1.03;;;21.70;29.00;;;;;;2226402;62;20452;-60
2022/01/24 10:38:54;0.00;0.00;0.62;0.00;0.00;0.62;1.50;0.90;;;21.70;29.00;;;;;;2225601;62;20411;-59
2022/01/24 10:42:10;0.00;0.00;0.62;0.00;0.00;0.62;1.53;1.10;;;21.70;29.00;;;;;;2225323;62;20425;-61
2022/01/24 10:44:56;0.00;0.00;0.62;0.00;0.00;0.62;1.40;0.80;;;21.70;29.00;;;;;;2226422;62;20738;-60
2022/01/24 10:47:45;0.00;0.00;0.62;0.00;0.00;0.62;1.40;0.90;;;21.70;28.90;;;;;;2225145;62;20362;-60
2022/01/24 10:50:30;0.00;0.00;0.62;0.00;0.00;0.62;1.30;0.90;;;21.70;28.90;;;;;;2226041;62;20578;-61
2022/01/24 10:53:16;0.00;0.00;0.62;0.00;0.00;0.62;1.40;0.80;;;21.70;28.90;;;;;;2225971;62;20384;-60
2022/01/24 10:56:00;0.00;0.00;0.62;0.00;0.00;0.62;1.77;1.13;;;21.70;29.50;;;;;;2225873;62;20378;-61
2022/01/24 10:58:46;0.00;0.00;0.62;0.00;0.00;0.62;1.50;0.83;;;21.70;28.90;;;;;;2226356;62;20366;-59
2022/01/24 11:01:31;0.00;0.00;0.62;0.00;0.00;0.62;1.50;0.70;;;21.70;28.90;;;;;;2225430;62;20723;-60
2022/01/24 11:04:17;0.00;0.00;0.62;0.00;0.00;0.62;1.27;0.73;;;21.70;28.90;;;;;;2225981;62;20390;-62
2022/01/24 11:07:03;0.00;0.00;0.62;0.00;0.00;0.62;1.47;1.07;;;21.70;28.90;;;;;;2226359;62;20370;-60
2022/01/24 11:09:48;0.00;0.00;0.62;0.00;0.00;0.62;1.30;0.80;;;21.70;28.90;;;;;;2225115;62;20361;-61
2022/01/24 11:12:33;0.00;0.00;0.62;0.00;0.00;0.62;1.30;0.90;;;21.70;28.90;;;;;;2225712;62;20410;-60
2022/01/24 11:15:19;0.00;0.00;0.62;0.00;0.00;0.62;1.27;0.77;;;21.70;28.90;;;;;;2226133;62;20575;-61
2022/01/24 11:18:05;0.00;0.00;0.62;0.00;0.00;0.62;1.40;0.80;;;21.70;28.90;;;;;;2225248;62;20370;-61
2022/01/24 11:21:00;0.00;0.00;0.62;0.00;0.00;0.62;1.40;0.80;;;21.70;28.90;;;;;;2226129;62;20435;-61
2022/01/24 11:23:45;0.00;0.00;0.62;0.00;0.00;0.62;1.20;0.80;;;21.70;28.90;;;;;;2225560;62;20370;-61
2022/01/24 11:26:30;0.00;0.00;0.62;0.00;0.00;0.62;1.30;0.77;;;21.70;28.90;;;;;;2225819;62;20573;-60
2022/01/24 11:29:18;0.00;0.00;0.62;0.00;0.00;0.62;1.33;0.90;;;21.70;28.90;;;;;;2226292;62;20366;-61
2022/01/24 11:32:15;0.00;0.00;0.62;0.00;0.00;0.62;1.40;0.90;;;21.80;28.90;;;;;;2224876;62;20623;-60
2022/01/24 11:35:01;0.00;0.00;0.62;0.00;0.00;0.62;1.30;0.80;;;21.80;28.90;;;;;;2225417;62;20387;-59
2022/01/24 11:37:46;0.00;0.00;0.62;0.00;0.00;0.62;1.40;0.70;;;21.70;28.90;;;;;;2225588;62;20393;-59
2022/01/24 11:40:46;0.00;0.00;0.62;0.00;0.00;0.62;1.60;0.80;;;21.80;28.90;;;;;;2225152;62;20438;-61
2022/01/24 11:43:35;0.00;0.00;0.62;0.00;0.00;0.62;1.50;0.80;;;21.80;29.40;;;;;;2226132;62;20779;-58
2022/01/24 11:46:41;0.00;0.00;0.62;0.00;0.00;0.62;1.30;0.70;;;21.80;28.90;;;;;;2224810;62;20399;-61
2022/01/24 11:49:36;0.00;0.00;0.62;0.00;0.00;0.62;1.20;0.70;;;21.80;28.90;;;;;;2225897;62;20411;-61
2022/01/24 11:52:30;0.00;0.00;0.62;0.00;0.00;0.62;1.37;0.83;;;21.80;28.90;;;;;;2225610;62;20385;-61
2022/01/24 11:55:20;0.00;0.00;0.62;0.00;0.00;0.62;1.40;1.00;;;21.80;28.90;;;;;;2226189;62;20403;-61
2022/01/24 11:58:07;0.00;0.00;0.62;0.00;0.00;0.62;1.63;1.00;;;21.80;28.90;;;;;;2226077;62;20770;-62
2022/01/24 12:00:54;0.00;0.00;0.62;0.00;0.00;0.62;1.40;0.70;;;21.80;28.90;;;;;;2224949;62;20390;-61
2022/01/24 12:03:50;0.00;0.00;0.62;0.00;0.00;0.62;1.50;0.83;;;21.80;28.90;;;;;;2225780;62;20393;-62
2022/01/24 12:07:17;0.00;0.00;0.62;0.00;0.00;0.62;1.40;0.90;;;21.80;28.90;;;;;;2226013;62;20358;-60
2022/01/24 12:10:41;0.00;0.00;0.62;0.00;0.00;0.62;1.40;0.80;;;21.80;28.90;;;;;;2225161;62;20827;-61
2022/01/24 12:13:35;0.00;0.00;0.62;0.00;0.00;0.62;1.30;0.77;;;21.80;28.90;;;;;;2226023;62;20389;-60
2022/01/24 12:16:32;0.00;0.00;0.62;0.00;0.00;0.62;1.30;0.80;;;21.80;28.90;;;;;;2224946;62;20595;-61
2022/01/24 12:19:28;0.00;0.00;0.62;0.00;0.00;0.62;1.30;0.70;;;21.80;28.90;;;;;;2225812;62;20443;-61
2022/01/24 12:22:36;0.00;0.00;0.62;0.00;0.00;0.62;1.30;0.80;;;21.80;28.90;;;;;;2225363;62;20405;-60
2022/01/24 12:25:47;0.00;0.00;0.62;0.00;0.00;0.62;1.37;0.80;;;21.80;28.90;;;;;;2225267;62;20591;-61
2022/01/24 12:28:44;0.00;0.00;0.62;0.00;0.00;0.62;1.20;0.70;;;21.80;28.90;;;;;;2226747;62;20786;-59
2022/01/24 12:31:37;0.00;0.00;0.62;0.00;0.00;0.62;1.20;0.60;;;21.80;28.90;;;;;;2225408;62;20380;-61
2022/01/24 12:34:28;0.00;0.00;0.62;0.00;0.00;0.62;1.30;0.73;;;21.80;28.90;;;;;;2226849;62;20514;-61
2022/01/24 12:37:22;0.00;0.00;0.62;0.00;0.00;0.62;1.20;0.73;;;21.80;28.80;;;;;;2225771;62;20362;-60
2022/01/24 12:40:11;0.00;0.00;0.62;0.00;0.00;0.62;1.30;0.80;;;21.80;28.90;;;;;;2225792;62;20465;-60
2022/01/24 12:43:03;0.00;0.00;0.62;0.00;0.00;0.62;1.20;0.70;;;21.80;28.80;;;;;;2226556;62;20385;-60
2022/01/24 12:48:51;0.00;0.00;0.62;0.00;0.00;0.62;1.30;0.73;;;21.80;28.80;;;;;;2226341;62;20407;-60
2022/01/24 12:51:37;0.00;0.00;0.62;0.00;0.00;0.62;1.20;0.70;;;21.80;28.80;;;;;;2226219;62;20411;-61
2022/01/24 12:54:29;0.00;0.00;0.62;0.00;0.00;0.62;1.40;0.83;;;21.80;28.90;;;;;;2227236;62;20886;-61
2022/01/24 12:57:19;0.00;0.00;0.62;0.00;0.00;0.62;1.20;0.60;;;21.80;28.80;;;;;;2230506;62;20589;-61
2022/01/24 13:00:09;0.00;0.00;0.62;0.00;0.00;0.62;1.50;0.80;;;21.80;28.80;;;;;;2229642;62;20369;-59